Time;durP1;ratioP1;P1;durP2;ratioP2;P2;SDS_P1;SDS_P2;PMS_P1;PMS_P2;Temp;Humidity;BMP_temperature;BMP_pressure;BME280_temperature;BME280_humidity;BME280_pressure;Samples;Min_cycle;Max_cycle;Signal;HPM_P1;HPM_P2
2023/01/21 00:01:15;;;;;;;10.07;5.90;;;0.00;74.20;;;3.67;46.73;97892.81;5030973;28;19940;-40
2023/01/21 00:03:43;;;;;;;9.23;5.43;;;0.00;74.20;;;3.66;46.93;97888.47;5031194;28;20041;-40
2023/01/21 00:06:16;;;;;;;8.37;5.27;;;0.00;74.10;;;3.68;46.66;97886.59;5031495;28;20037;-39
2023/01/21 00:08:44;;;;;;;6.83;4.93;;;0.00;73.60;;;3.68;46.81;97893.63;5031142;28;20436;-40
2023/01/21 00:11:14;;;;;;;10.17;6.00;;;0.00;73.80;;;3.68;46.94;97899.78;5030744;28;20037;-40
2023/01/21 00:13:43;;;;;;;8.27;5.30;;;0.00;73.90;;;3.66;46.70;97900.81;5030388;28;20045;-45
2023/01/21 00:16:12;;;;;;;37.00;15.70;;;0.00;73.90;;;3.66;46.67;97900.81;5030211;28;20037;-49
2023/01/21 00:18:40;;;;;;;24.77;11.90;;;0.00;73.70;;;3.69;46.58;97904.06;5030897;28;20041;-46
2023/01/21 00:21:08;;;;;;;20.37;11.00;;;0.10;73.60;;;3.66;46.71;97912.19;5022929;28;20057;-46
2023/01/21 00:23:36;;;;;;;8.60;6.50;;;0.10;73.50;;;3.65;46.50;97907.03;5031166;28;20042;-47
2023/01/21 00:26:06;;;;;;;11.63;7.70;;;0.00;73.10;;;3.62;46.60;97907.25;5031222;28;20044;-45
2023/01/21 00:28:36;;;;;;;12.37;6.53;;;0.00;73.30;;;3.64;46.54;97914.09;5030432;28;20056;-46
2023/01/21 00:31:07;;;;;;;9.87;6.27;;;0.10;73.50;;;3.65;46.41;97905.25;5029059;28;20566;-46
2023/01/21 00:33:36;;;;;;;10.83;6.07;;;0.10;73.80;;;3.63;46.52;97904.53;5031032;28;20065;-47
2023/01/21 00:36:10;;;;;;;8.97;4.80;;;0.10;72.60;;;3.65;46.62;97915.78;5030752;28;20045;-44
2023/01/21 00:38:38;;;;;;;12.27;6.23;;;0.10;72.50;;;3.63;46.33;97906.31;5030988;28;20049;-44
2023/01/21 00:41:09;;;;;;;10.10;5.60;;;0.10;72.70;;;3.65;46.58;97915.78;5029309;28;20048;-46
2023/01/21 00:43:38;;;;;;;8.30;5.50;;;0.10;72.50;;;3.68;46.49;97912.94;5030999;28;20049;-45
2023/01/21 00:46:06;;;;;;;10.70;5.63;;;0.20;72.20;;;3.72;46.02;97914.38;5029677;28;20056;-48
2023/01/21 00:48:34;;;;;;;7.43;4.90;;;0.20;72.20;;;3.74;46.51;97919.53;5029921;28;20053;-49
2023/01/21 00:51:02;;;;;;;8.57;5.80;;;0.20;71.50;;;3.72;46.38;97917.03;5030393;28;20060;-49
2023/01/21 00:53:34;;;;;;;8.17;5.33;;;0.20;71.80;;;3.72;46.20;97914.38;5034676;28;20417;-47
2023/01/21 00:56:06;;;;;;;8.23;5.00;;;0.20;71.70;;;3.73;46.23;97916.06;5035021;28;20050;-46
2023/01/21 00:58:34;;;;;;;9.10;5.63;;;0.10;71.90;;;3.73;46.14;97923.94;5033728;28;20041;-47
2023/01/21 01:01:10;;;;;;;8.20;5.80;;;0.10;71.60;;;3.72;46.17;97935.47;5034423;28;20045;-45
2023/01/21 01:03:39;;;;;;;11.17;5.93;;;0.10;71.50;;;3.73;46.03;97931.84;5034791;28;20052;-45
2023/01/21 01:06:17;;;;;;;8.57;5.10;;;0.10;71.50;;;3.70;46.18;97934.72;5034440;28;20052;-47
2023/01/21 01:08:45;;;;;;;6.90;5.10;;;0.10;71.70;;;3.73;46.06;97936.28;5034209;28;20464;-46
2023/01/21 01:11:14;;;;;;;8.40;5.20;;;0.10;71.30;;;3.74;45.95;97933.56;5033947;28;20041;-46
2023/01/21 01:13:42;;;;;;;7.17;4.77;;;0.20;71.20;;;3.74;46.08;97948.50;5034565;28;20049;-46
2023/01/21 01:16:13;;;;;;;9.73;5.60;;;0.10;70.90;;;3.74;46.13;97933.56;5033202;28;20412;-44
2023/01/21 01:18:43;;;;;;;7.10;4.90;;;0.20;70.10;;;3.68;45.93;97941.03;5033656;28;20045;-47
2023/01/21 01:21:15;;;;;;;8.80;4.83;;;0.20;69.50;;;3.68;45.90;97941.03;5033473;28;20053;-46
2023/01/21 01:23:44;;;;;;;7.07;5.07;;;0.20;69.70;;;3.68;45.64;97944.53;5034307;28;20056;-45
2023/01/21 01:26:16;;;;;;;7.30;4.93;;;0.20;69.60;;;3.73;45.77;97950.28;5026394;28;20049;-47
2023/01/21 01:28:44;;;;;;;7.87;5.13;;;0.20;69.60;;;3.73;45.60;97955.56;5034087;28;20049;-44
2023/01/21 01:31:15;;;;;;;7.80;4.97;;;0.20;69.60;;;3.75;45.70;97952.81;5031917;28;20045;-50
2023/01/21 01:33:43;;;;;;;6.00;4.43;;;0.20;69.70;;;3.75;45.52;97952.81;5034544;28;20493;-47
2023/01/21 01:36:19;;;;;;;7.03;4.73;;;0.20;69.40;;;3.74;45.77;97959.88;5032923;28;20044;-47
2023/01/21 01:38:47;;;;;;;6.87;4.67;;;0.20;69.70;;;3.73;45.93;97960.00;5016544;28;20400;-49
2023/01/21 01:41:19;;;;;;;6.27;5.13;;;0.10;70.60;;;3.69;46.02;97961.16;5033468;28;20048;-46
2023/01/21 01:43:53;;;;;;;9.13;5.83;;;0.00;71.40;;;3.66;46.01;97959.56;5032692;28;20049;-48
2023/01/21 01:46:23;;;;;;;9.77;6.10;;;0.00;72.30;;;3.66;45.96;97954.31;5031108;28;20042;-47
2023/01/21 01:49:13;;;;;;;10.00;6.20;;;0.00;73.00;;;3.63;46.36;97962.44;5032835;28;20437;-45
2023/01/21 01:51:49;;;;;;;8.47;5.47;;;0.00;73.40;;;3.64;46.04;97955.38;5033812;28;20038;-48
2023/01/21 01:54:22;;;;;;;9.97;5.53;;;-0.10;73.30;;;3.56;46.00;97963.81;5025939;28;20493;-46
2023/01/21 01:56:54;;;;;;;9.43;5.03;;;-0.20;73.10;;;3.55;46.13;97957.72;5032245;28;20390;-46
2023/01/21 01:59:22;;;;;;;7.20;5.60;;;-0.20;73.10;;;3.57;46.29;97964.66;5031996;28;20049;-45
2023/01/21 02:01:50;;;;;;;7.33;5.53;;;-0.10;72.80;;;3.57;46.20;97973.41;5031702;28;20522;-46
2023/01/21 02:04:28;;;;;;;8.40;5.67;;;-0.10;72.60;;;3.57;46.11;97969.91;5032763;28;20041;-45
2023/01/21 02:06:57;;;;;;;11.17;6.63;;;-0.10;72.50;;;3.58;46.14;97976.88;5033149;28;20057;-47
2023/01/21 02:09:28;;;;;;;9.40;5.43;;;-0.10;72.50;;;3.55;46.17;97977.94;5031983;28;20381;-45
2023/01/21 02:11:59;;;;;;;8.60;5.53;;;-0.10;72.50;;;3.50;46.00;97983.53;5033244;28;20045;-47
2023/01/21 02:14:29;;;;;;;10.30;6.27;;;-0.20;73.00;;;3.45;46.29;97985.66;5032071;28;20485;-44
2023/01/21 02:17:38;;;;;;;12.90;6.93;;;-0.20;73.10;;;3.31;46.09;97989.25;5032492;28;20049;-47
2023/01/21 02:20:14;;;;;;;12.73;6.63;;;-0.30;73.80;;;3.26;46.49;97987.91;5032835;28;20052;-46
2023/01/21 02:23:19;;;;;;;11.33;6.97;;;-0.50;74.60;;;3.10;46.70;97990.72;5031867;28;20045;-45
2023/01/21 02:26:13;;;;;;;12.52;7.45;;;-0.50;75.70;;;3.11;46.67;97993.25;5029324;28;20052;-49
2023/01/21 02:29:13;;;;;;;11.77;8.10;;;-0.60;75.30;;;3.06;46.26;98005.88;5028622;28;20049;-48
2023/01/21 02:32:12;;;;;;;13.63;8.03;;;-0.60;74.80;;;2.97;46.22;98003.91;5027977;28;20409;-48
2023/01/21 02:34:55;;;;;;;17.20;7.90;;;-0.70;74.90;;;2.93;46.39;98003.28;5028228;28;20048;-45
2023/01/21 02:38:05;;;;;;;10.40;7.43;;;-0.70;75.40;;;2.86;46.53;98014.31;5025816;28;20040;-46
2023/01/21 02:40:53;;;;;;;13.67;6.73;;;-0.70;75.00;;;2.86;46.65;98020.41;5025782;28;20053;-44
2023/01/21 02:43:40;;;;;;;10.80;7.13;;;-0.80;74.90;;;2.77;46.61;98023.63;5031711;28;20045;-44
2023/01/21 02:46:46;;;;;;;11.90;6.83;;;-0.80;75.40;;;2.65;47.05;98016.59;5031818;28;20045;-46
2023/01/21 02:49:26;;;;;;;15.37;7.50;;;-0.90;75.60;;;2.71;46.75;98021.44;5011697;28;20045;-46
2023/01/21 02:51:53;;;;;;;11.73;7.17;;;-0.90;75.70;;;2.66;46.86;98021.75;5031500;28;20056;-48
2023/01/21 02:54:39;;;;;;;11.50;7.97;;;-0.90;75.30;;;2.55;46.50;98022.44;5032175;28;20138;-46
2023/01/21 02:57:29;;;;;;;10.43;7.17;;;-1.00;75.60;;;2.52;46.75;98022.66;5032465;28;20496;-44
2023/01/21 03:00:00;;;;;;;14.97;9.30;;;-1.00;75.40;;;2.48;47.32;98026.44;5032109;28;20042;-48
2023/01/21 03:02:55;;;;;;;14.83;9.77;;;-1.20;75.60;;;2.35;46.82;98031.66;5022881;28;20046;-47
2023/01/21 03:06:08;;;;;;;13.50;7.83;;;-1.20;76.20;;;2.31;47.07;98026.72;5025053;28;20108;-46
2023/01/21 03:09:24;;;;;;;11.27;7.07;;;-1.20;76.30;;;2.20;46.71;98027.41;5025956;28;20045;-46
2023/01/21 03:12:28;;;;;;;15.03;8.10;;;-1.30;76.30;;;2.22;46.54;98032.56;5025925;28;20057;-46
2023/01/21 03:18:23;;;;;;;11.03;8.00;;;-1.30;76.20;;;2.21;46.73;98036.13;5032254;28;20455;-46
2023/01/21 03:21:06;;;;;;;14.73;8.30;;;-1.40;76.20;;;2.11;47.27;98043.75;5030861;28;20044;-44
2023/01/21 03:23:41;;;;;;;16.60;7.77;;;-1.50;75.80;;;2.07;46.99;98037.84;5025104;28;20048;-48
2023/01/21 03:26:13;;;;;;;12.77;7.70;;;-1.60;76.40;;;2.02;47.53;98029.44;5030762;28;20049;-44
2023/01/21 03:28:47;;;;;;;13.67;7.77;;;-1.60;76.60;;;1.99;47.00;98034.88;5030782;28;20053;-47
2023/01/21 03:31:22;;;;;;;13.13;7.47;;;-1.60;77.00;;;1.97;47.57;98039.38;5030555;28;20053;-46
2023/01/21 03:33:54;;;;;;;11.23;7.67;;;-1.60;76.80;;;1.97;47.02;98042.00;5030651;28;20064;-48
2023/01/21 03:36:57;;;;;;;18.60;8.80;;;-1.70;76.80;;;1.84;47.02;98046.34;5022817;28;20440;-44
2023/01/21 03:39:42;;;;;;;11.80;7.53;;;-1.70;77.30;;;1.85;47.18;98048.03;5024606;28;20044;-43
2023/01/21 03:42:12;;;;;;;13.60;7.50;;;-1.70;77.10;;;1.85;46.87;98050.66;5031536;28;20060;-47
2023/01/21 03:44:41;;;;;;;11.77;7.17;;;-1.80;77.10;;;1.83;47.33;98050.75;5030494;28;20048;-47
2023/01/21 03:47:35;;;;;;;14.93;8.23;;;-1.80;77.10;;;1.77;47.60;98056.41;5030269;28;20520;-45
2023/01/21 03:50:19;;;;;;;12.70;7.53;;;-1.70;77.60;;;1.82;47.61;98056.94;5030026;28;20481;-46
2023/01/21 03:52:47;;;;;;;13.05;8.75;;;-1.70;77.60;;;1.86;47.09;98054.97;5030661;28;20511;-46
2023/01/21 03:55:18;;;;;;;13.67;7.43;;;-1.70;77.50;;;1.84;47.04;98051.59;5031259;28;20513;-45
2023/01/21 03:57:46;;;;;;;15.23;8.57;;;-1.70;77.40;;;1.79;47.71;98045.81;5031600;28;20065;-47
2023/01/21 04:00:14;;;;;;;14.07;8.43;;;-1.70;78.00;;;1.77;47.45;98046.75;5029722;28;20061;-46
2023/01/21 04:02:43;;;;;;;19.40;8.57;;;-1.70;78.10;;;1.77;47.77;98053.78;5031240;28;20076;-47
2023/01/21 04:05:13;;;;;;;13.53;8.17;;;-1.80;77.90;;;1.76;47.95;98052.06;5031699;28;20045;-46
2023/01/21 04:07:40;;;;;;;14.00;7.80;;;-1.70;78.00;;;1.75;47.29;98063.53;5031061;28;20048;-48
2023/01/21 04:10:09;;;;;;;13.83;8.30;;;-1.80;77.60;;;1.74;47.36;98064.47;5029861;28;20057;-44
2023/01/21 04:12:37;;;;;;;14.47;7.63;;;-1.80;78.10;;;1.74;47.28;98065.28;5031313;28;20041;-44
2023/01/21 04:15:06;;;;;;;14.77;8.20;;;-1.80;78.10;;;1.72;47.88;98064.53;5031149;28;20511;-44
2023/01/21 04:17:34;;;;;;;13.23;8.13;;;-1.80;78.30;;;1.70;47.80;98063.81;5030993;28;20045;-46
2023/01/21 04:20:01;;;;;;;13.60;8.30;;;-1.80;78.00;;;1.66;48.07;98067.56;5031039;28;20038;-50
2023/01/21 04:22:29;;;;;;;13.37;8.07;;;-1.90;77.90;;;1.67;47.65;98076.31;5031242;28;20045;-44
2023/01/21 04:24:57;;;;;;;10.27;7.50;;;-1.90;77.90;;;1.64;47.60;98074.69;5030771;28;20053;-48
2023/01/21 04:27:25;;;;;;;15.43;7.50;;;-1.90;77.70;;;1.61;48.24;98074.03;5034179;28;20041;-44
2023/01/21 04:29:52;;;;;;;11.97;8.30;;;-1.90;78.30;;;1.58;47.59;98078.53;5034668;28;20052;-45
2023/01/21 04:32:20;;;;;;;12.83;8.73;;;-2.00;77.90;;;1.56;47.90;98076.94;5035079;28;20045;-47
2023/01/21 04:34:48;;;;;;;14.33;8.50;;;-2.00;77.60;;;1.55;48.29;98075.25;5035240;28;20041;-47
2023/01/21 04:37:15;;;;;;;15.43;9.07;;;-2.00;78.30;;;1.49;48.10;98079.13;5035430;28;20513;-48
2023/01/21 04:39:43;;;;;;;12.90;7.57;;;-2.10;78.40;;;1.46;48.19;98081.91;5034597;28;20045;-46
2023/01/21 04:42:11;;;;;;;13.93;8.27;;;-2.10;78.50;;;1.48;48.23;98077.41;5034642;28;20045;-46
2023/01/21 04:44:39;;;;;;;15.23;8.27;;;-2.10;78.50;;;1.46;47.80;98075.84;5035014;28;20034;-45
2023/01/21 04:47:07;;;;;;;11.43;7.97;;;-2.10;78.30;;;1.49;48.41;98080.88;5033234;28;20037;-44
2023/01/21 04:49:34;;;;;;;12.87;8.00;;;-2.00;78.50;;;1.49;47.63;98081.75;5034675;28;20125;-45
2023/01/21 04:52:02;;;;;;;14.20;8.60;;;-2.00;78.20;;;1.49;47.63;98081.75;5034955;28;20421;-47
2023/01/21 04:54:30;;;;;;;12.57;7.00;;;-2.00;78.50;;;1.45;47.81;98084.63;5034685;28;20037;-48
2023/01/21 04:56:58;;;;;;;20.30;11.27;;;-2.10;79.00;;;1.40;48.37;98084.91;5034518;28;20519;-48
2023/01/21 04:59:26;;;;;;;17.03;10.30;;;-2.10;79.80;;;1.33;48.02;98080.97;5034684;28;20037;-49
2023/01/21 05:01:53;;;;;;;21.23;11.13;;;-2.20;81.00;;;1.31;48.31;98088.09;5033994;28;20045;-45
2023/01/21 05:04:21;;;;;;;16.60;9.90;;;-2.20;82.20;;;1.29;49.18;98092.59;5034665;28;20072;-45
2023/01/21 05:06:49;;;;;;;16.87;11.50;;;-2.20;83.10;;;1.30;49.53;98089.88;5034366;28;20038;-48
2023/01/21 05:09:17;;;;;;;20.97;12.73;;;-2.10;84.40;;;1.36;49.78;98089.50;5034090;28;20045;-46
2023/01/21 05:11:45;;;;;;;19.83;11.60;;;-2.00;84.90;;;1.38;49.49;98094.66;5034488;28;20259;-45
2023/01/21 05:14:12;;;;;;;20.73;11.90;;;-2.00;85.10;;;1.41;49.53;98102.34;5034076;28;20045;-46
2023/01/21 05:16:40;;;;;;;20.40;13.77;;;-1.90;86.50;;;1.51;49.90;98100.00;5034364;28;20485;-48
2023/01/21 05:19:08;;;;;;;28.20;14.13;;;-1.80;87.20;;;1.57;50.25;98097.84;5033709;28;20049;-46
2023/01/21 05:21:36;;;;;;;26.07;14.10;;;-1.70;87.20;;;1.60;50.14;98099.44;5041433;28;20520;-46
2023/01/21 05:24:04;;;;;;;28.50;14.90;;;-1.80;87.10;;;1.69;50.26;98105.91;5034189;28;20049;-46
2023/01/21 05:26:32;;;;;;;33.17;17.50;;;-1.70;88.00;;;1.76;50.18;98107.22;5033410;28;20060;-46
2023/01/21 05:29:00;;;;;;;24.83;14.43;;;-1.70;88.30;;;1.82;50.26;98114.69;5033771;28;20049;-46
2023/01/21 05:31:27;;;;;;;28.87;15.73;;;-1.60;88.30;;;1.88;50.04;98116.09;5034169;28;20397;-46
2023/01/21 05:33:56;;;;;;;27.90;15.17;;;-1.60;88.30;;;1.89;49.88;98121.25;5033872;28;20056;-49
2023/01/21 05:36:24;;;;;;;32.60;15.90;;;-1.50;87.80;;;1.90;50.58;98116.84;5032546;28;20038;-46
2023/01/21 05:38:52;;;;;;;30.97;17.50;;;-1.50;87.70;;;1.92;49.75;98112.34;5033617;28;20408;-44
2023/01/21 05:41:19;;;;;;;38.37;19.03;;;-1.50;87.70;;;1.94;49.93;98113.97;5033466;28;20045;-46
2023/01/21 05:43:47;;;;;;;40.10;20.73;;;-1.60;87.70;;;1.94;49.95;98119.22;5032502;28;20068;-47
2023/01/21 05:46:15;;;;;;;36.63;17.70;;;-1.60;87.50;;;1.92;49.71;98134.22;5033696;28;20071;-50
2023/01/21 05:48:44;;;;;;;38.67;20.53;;;-1.50;87.40;;;1.90;49.85;98132.59;5033729;28;20050;-44
2023/01/21 05:51:11;;;;;;;41.90;19.67;;;-1.50;87.40;;;1.86;49.79;98129.34;5031739;28;20057;-44
2023/01/21 05:53:39;;;;;;;36.83;18.80;;;-1.50;87.30;;;1.86;50.20;98131.97;5033480;28;20046;-44
2023/01/21 05:56:07;;;;;;;37.57;17.20;;;-1.60;87.30;;;1.85;49.75;98139.94;5032347;28;20037;-46
2023/01/21 05:58:35;;;;;;;34.60;18.17;;;-1.60;88.10;;;1.84;50.42;98135.63;5033263;28;20052;-48
2023/01/21 06:01:03;;;;;;;34.93;18.40;;;-1.70;88.50;;;1.83;50.01;98137.41;5039997;28;20045;-47
2023/01/21 06:03:31;;;;;;;30.70;17.90;;;-1.70;88.60;;;1.74;50.39;98138.78;5033710;28;20416;-49
2023/01/21 06:05:59;;;;;;;31.37;16.53;;;-1.80;88.60;;;1.71;49.91;98146.88;5032180;28;20061;-46
2023/01/21 06:08:27;;;;;;;30.90;16.33;;;-1.80;89.50;;;1.63;50.30;98149.13;5033284;28;20041;-46
2023/01/21 06:10:55;;;;;;;34.57;18.50;;;-2.00;89.80;;;1.66;50.75;98148.09;5032049;28;20046;-47
2023/01/21 06:13:23;;;;;;;28.17;16.27;;;-1.90;91.60;;;1.63;50.70;98150.88;5033548;28;20037;-50
2023/01/21 06:15:55;;;;;;;32.27;17.77;;;-1.90;92.10;;;1.66;50.92;98151.56;5032054;28;20045;-48
2023/01/21 06:18:24;;;;;;;32.23;18.50;;;-1.90;91.90;;;1.72;50.83;98159.06;5033053;28;20049;-48
2023/01/21 06:20:52;;;;;;;31.33;14.87;;;-1.80;92.10;;;1.75;50.27;98165.91;5032958;28;20044;-49
2023/01/21 06:23:20;;;;;;;35.97;18.33;;;-1.70;92.00;;;1.76;50.28;98163.22;5015810;28;20053;-45
2023/01/21 06:25:48;;;;;;;31.57;17.57;;;-1.70;91.30;;;1.82;50.58;98161.97;5033030;28;20041;-45
2023/01/21 06:28:15;;;;;;;30.33;17.67;;;-1.70;91.40;;;1.85;50.85;98169.66;5039877;28;20056;-49
2023/01/21 06:30:43;;;;;;;22.83;13.47;;;-1.60;90.90;;;1.87;50.89;98166.94;5032541;28;20049;-46
2023/01/21 06:33:12;;;;;;;26.87;14.30;;;-1.60;89.80;;;1.71;50.03;98164.41;5033548;28;20064;-44
2023/01/21 06:35:39;;;;;;;24.37;13.13;;;-1.90;90.10;;;1.65;51.12;98178.75;5032913;28;20405;-47
2023/01/21 06:38:07;;;;;;;24.43;12.40;;;-1.90;91.30;;;1.55;51.17;98182.84;5032492;28;20049;-44
2023/01/21 06:40:35;;;;;;;26.43;13.77;;;-2.10;91.50;;;1.56;50.54;98187.19;5032424;28;20052;-47
2023/01/21 06:43:02;;;;;;;26.97;13.97;;;-2.00;93.00;;;1.52;50.99;98188.28;5033111;28;20386;-49
2023/01/21 06:45:30;;;;;;;26.07;12.83;;;-2.00;92.40;;;1.54;50.64;98191.66;5024511;28;20052;-46
2023/01/21 06:47:58;;;;;;;26.33;13.13;;;-2.00;93.40;;;1.62;50.80;98192.03;5033380;28;20052;-47
2023/01/21 06:50:26;;;;;;;23.23;13.20;;;-1.90;93.30;;;1.67;50.44;98194.41;5031767;28;20389;-44
2023/01/21 06:52:54;;;;;;;22.33;12.10;;;-1.80;92.50;;;1.71;50.97;98201.16;5031828;28;20497;-46
2023/01/21 06:55:21;;;;;;;27.43;11.60;;;-1.80;92.60;;;1.75;50.79;98205.28;5032465;28;20060;-45
2023/01/21 06:57:49;;;;;;;28.53;14.87;;;-1.80;92.50;;;1.80;50.45;98213.72;5032541;28;20433;-46
2023/01/21 07:00:18;;;;;;;20.70;11.40;;;-1.70;92.10;;;1.71;50.59;98214.28;5032806;28;20045;-44
2023/01/21 07:02:46;;;;;;;28.03;14.17;;;-1.80;90.60;;;1.69;50.30;98210.91;5032236;28;20405;-47
2023/01/21 07:05:14;;;;;;;21.50;12.03;;;-1.90;91.90;;;1.66;51.07;98214.56;5032233;28;20053;-46
2023/01/21 07:07:42;;;;;;;31.20;17.47;;;-1.90;91.70;;;1.67;50.46;98213.63;5032259;28;20048;-44
2023/01/21 07:10:10;;;;;;;31.50;15.53;;;-1.90;92.30;;;1.64;50.52;98219.03;5032080;28;20054;-48
2023/01/21 07:12:38;;;;;;;29.20;15.50;;;-1.90;91.80;;;1.67;50.83;98224.13;5030498;28;20044;-48
2023/01/21 07:15:07;;;;;;;25.37;13.73;;;-1.80;92.40;;;1.72;50.66;98232.56;5032082;28;20046;-49
2023/01/21 07:17:35;;;;;;;25.33;13.90;;;-1.80;92.60;;;1.78;50.62;98228.72;5032786;28;20045;-47
2023/01/21 07:20:03;;;;;;;23.33;12.90;;;-1.70;92.10;;;1.83;51.02;98231.94;5030763;28;20041;-44
2023/01/21 07:22:35;;;;;;;26.83;13.07;;;-1.70;91.80;;;1.88;50.43;98243.00;5023882;28;20068;-45
2023/01/21 07:25:04;;;;;;;23.93;12.87;;;-1.70;91.70;;;1.91;50.42;98242.81;5030790;28;20384;-45
2023/01/21 07:27:32;;;;;;;23.23;12.27;;;-1.70;91.80;;;1.96;50.14;98251.25;5023352;28;20064;-46
2023/01/21 07:29:59;;;;;;;25.23;12.70;;;-1.60;91.70;;;1.97;50.51;98252.94;5032089;28;20049;-45
2023/01/21 07:32:27;;;;;;;26.37;12.93;;;-1.60;91.20;;;1.95;49.94;98254.81;5031487;28;20056;-46
2023/01/21 07:34:55;;;;;;;25.03;13.13;;;-1.70;91.00;;;1.96;51.02;98258.31;5031558;28;20422;-50
2023/01/21 07:37:23;;;;;;;25.53;11.90;;;-1.60;91.60;;;1.97;50.98;98258.19;5031629;28;20421;-48
2023/01/21 07:39:51;;;;;;;23.40;11.90;;;-1.60;91.40;;;2.02;50.59;98262.34;5031075;28;20037;-44
2023/01/21 07:42:21;;;;;;;25.97;13.23;;;-1.60;91.40;;;2.04;51.21;98266.56;5031411;28;20041;-50
2023/01/21 07:44:48;;;;;;;22.47;11.80;;;-1.50;91.50;;;2.11;50.72;98273.13;5031594;28;20045;-50
2023/01/21 07:47:16;;;;;;;22.80;12.10;;;-1.50;91.50;;;2.12;50.27;98272.19;5030403;28;20389;-45
2023/01/21 07:49:44;;;;;;;23.70;12.13;;;-1.40;91.00;;;2.13;50.41;98276.53;5026982;28;20048;-46
2023/01/21 07:52:12;;;;;;;26.57;14.23;;;-1.40;90.70;;;2.17;50.51;98270.13;5031432;28;20049;-45
2023/01/21 07:54:40;;;;;;;23.00;14.27;;;-1.40;90.80;;;2.22;50.83;98272.47;5031302;28;20477;-50
2023/01/21 07:57:08;;;;;;;23.87;13.30;;;-1.30;90.80;;;2.27;50.82;98272.19;5031197;28;20045;-44
2023/01/21 07:59:36;;;;;;;29.60;15.07;;;-1.30;90.60;;;2.32;50.53;98278.84;5031068;28;20049;-45
2023/01/21 08:02:04;;;;;;;25.80;13.57;;;-1.30;90.70;;;2.34;50.75;98268.25;5031343;28;20068;-47
2023/01/21 08:04:31;;;;;;;24.27;13.80;;;-1.30;91.00;;;2.37;50.75;98273.31;5031464;28;20042;-45
2023/01/21 08:07:00;;;;;;;26.57;12.37;;;-1.30;91.10;;;2.44;50.50;98277.25;5030248;28;20236;-45
2023/01/21 08:09:28;;;;;;;26.53;12.63;;;-1.20;90.80;;;2.47;50.67;98284.13;5030713;28;20041;-47
2023/01/21 08:11:56;;;;;;;24.30;12.73;;;-1.20;90.70;;;2.50;50.76;98286.53;5031132;28;20071;-44
2023/01/21 08:14:24;;;;;;;21.53;11.63;;;-1.20;90.60;;;2.50;50.82;98284.78;5031272;28;20057;-49
2023/01/21 08:16:52;;;;;;;18.60;9.73;;;-1.10;90.40;;;2.53;50.59;98278.47;5031612;28;20428;-45
2023/01/21 08:19:19;;;;;;;18.73;9.90;;;-1.10;89.90;;;2.47;50.56;98277.06;5030468;28;20042;-46
2023/01/21 08:21:47;;;;;;;23.40;12.03;;;-1.00;89.00;;;2.46;50.62;98283.28;5031135;28;20072;-44
2023/01/21 08:24:15;;;;;;;22.40;12.90;;;-1.00;88.50;;;2.49;50.10;98280.44;5031148;28;20053;-45
2023/01/21 08:26:43;;;;;;;21.37;11.13;;;-1.00;88.70;;;2.52;50.74;98285.53;5031461;28;20037;-46
2023/01/21 08:29:11;;;;;;;22.73;12.73;;;-1.00;89.00;;;2.59;50.60;98274.63;5031087;28;20053;-50
2023/01/21 08:31:39;;;;;;;19.07;10.30;;;-1.00;89.20;;;2.62;50.09;98274.41;5029846;28;20038;-48
2023/01/21 08:34:07;;;;;;;24.50;12.53;;;-1.00;88.20;;;2.60;50.16;98281.53;5031149;28;20049;-45
2023/01/21 08:36:37;;;;;;;30.53;14.83;;;-1.00;88.50;;;2.63;50.56;98284.00;5031074;28;20038;-46
2023/01/21 08:39:05;;;;;;;25.80;13.10;;;-1.00;88.70;;;2.65;50.23;98282.94;5029557;28;20053;-51
2023/01/21 08:41:33;;;;;;;22.13;12.10;;;-0.90;89.10;;;2.67;50.47;98274.97;5031445;28;20041;-45
2023/01/21 08:44:01;;;;;;;21.33;12.07;;;-0.90;89.20;;;2.72;50.68;98281.63;5030171;28;20068;-48
2023/01/21 08:46:28;;;;;;;23.97;12.53;;;-0.90;89.00;;;2.79;50.43;98279.44;5031153;28;20496;-45
2023/01/21 08:48:56;;;;;;;37.47;16.40;;;-0.90;89.30;;;2.86;50.06;98286.03;5030981;28;20056;-45
2023/01/21 08:51:24;;;;;;;35.43;18.77;;;-0.80;88.60;;;2.87;49.82;98287.72;5030993;28;20420;-49
2023/01/21 08:53:52;;;;;;;29.90;15.60;;;-0.90;88.80;;;2.90;50.09;98294.56;5012067;28;20060;-47
2023/01/21 08:56:20;;;;;;;25.27;14.50;;;-0.80;88.40;;;2.92;50.38;98292.69;5022956;28;20497;-48
2023/01/21 08:58:53;;;;;;;23.33;12.23;;;-0.70;88.90;;;2.92;50.63;98288.25;5024409;28;20047;-47
2023/01/21 09:01:21;;;;;;;22.85;12.35;;;-0.80;88.40;;;2.96;50.44;98283.66;5023710;28;20052;-45
2023/01/21 09:03:56;;;;;;;19.80;10.67;;;-0.80;88.20;;;2.92;49.55;98288.25;5025262;28;20428;-40
2023/01/21 09:06:27;;;;;;;25.53;11.83;;;-0.90;88.30;;;2.98;50.30;98296.72;5025368;28;20042;-40
2023/01/21 09:08:55;;;;;;;18.90;11.20;;;-0.80;88.90;;;2.94;50.31;98289.00;5024386;28;20049;-40
2023/01/21 09:11:28;;;;;;;19.30;11.07;;;-0.90;88.70;;;2.99;50.09;98290.53;5024558;28;20398;-40
2023/01/21 09:13:59;;;;;;;22.53;11.73;;;-0.80;89.40;;;3.03;50.23;98292.00;5027104;28;20057;-40
2023/01/21 09:16:27;;;;;;;22.77;11.37;;;-0.80;89.00;;;3.06;50.27;98290.00;5027454;28;20527;-40
2023/01/21 09:18:55;;;;;;;23.13;12.73;;;-0.80;88.70;;;3.05;50.11;98290.13;5025602;28;20088;-41
2023/01/21 09:21:23;;;;;;;23.57;12.73;;;-0.80;88.70;;;3.04;49.88;98286.63;5026396;28;20050;-41
2023/01/21 09:23:51;;;;;;;19.50;9.93;;;-0.80;88.20;;;2.99;49.87;98293.16;5029093;28;20049;-41
2023/01/21 09:26:22;;;;;;;21.50;11.00;;;-0.90;88.80;;;2.91;49.94;98289.22;5028654;28;20045;-40
2023/01/21 09:28:57;;;;;;;31.90;13.03;;;-0.90;89.40;;;2.88;50.09;98293.81;5029219;28;20497;-41
2023/01/21 09:31:28;;;;;;;22.70;11.70;;;-1.00;89.00;;;2.84;50.34;98295.78;5028913;28;20045;-40
2023/01/21 09:34:02;;;;;;;21.63;11.70;;;-1.10;89.30;;;2.78;50.19;98300.59;5029178;28;20068;-40
2023/01/21 09:36:33;;;;;;;23.63;12.07;;;-1.10;90.20;;;2.74;50.22;98297.31;5029182;28;20045;-41
2023/01/21 09:39:01;;;;;;;17.10;10.53;;;-1.20;91.20;;;2.81;50.32;98297.78;5027706;28;20037;-41
2023/01/21 09:41:48;;;;;;;22.53;10.50;;;-1.10;92.00;;;2.84;50.42;98290.53;5033658;28;20045;-41
2023/01/21 09:44:38;;;;;;;19.80;9.73;;;-1.00;90.70;;;2.77;50.69;98299.75;5032901;28;20049;-40
2023/01/21 09:47:33;;;;;;;27.03;12.60;;;-1.10;90.80;;;2.73;50.43;98300.88;5034209;28;20046;-40
2023/01/21 09:50:09;;;;;;;21.43;11.63;;;-1.00;91.40;;;2.80;50.44;98311.88;5027391;28;20496;-41
2023/01/21 09:52:50;;;;;;;24.10;10.47;;;-1.00;91.30;;;2.82;50.96;98315.25;5033816;28;20421;-41
2023/01/21 09:55:40;;;;;;;20.20;12.53;;;-0.90;91.80;;;2.92;50.63;98321.63;5040586;28;20046;-41
2023/01/21 09:58:36;;;;;;;18.87;9.33;;;-0.80;92.10;;;2.95;50.55;98324.06;5032607;28;20065;-40
2023/01/21 10:01:33;;;;;;;17.77;10.27;;;-0.70;90.50;;;2.86;50.84;98324.63;5028729;28;20497;-41
2023/01/21 10:04:38;;;;;;;25.43;13.30;;;-0.80;91.00;;;2.88;50.84;98318.31;5027203;28;20045;-41
2023/01/21 10:07:26;;;;;;;20.17;11.87;;;-0.80;90.40;;;2.95;50.77;98327.53;5028211;28;20069;-42
2023/01/21 10:10:14;;;;;;;19.10;9.93;;;-0.70;91.10;;;2.98;50.76;98321.22;5025885;28;20515;-41
2023/01/21 10:13:19;;;;;;;18.60;10.80;;;-0.70;89.80;;;2.92;50.56;98327.72;5025738;28;20052;-41
2023/01/21 10:16:39;;;;;;;19.35;12.13;;;-0.70;89.80;;;2.73;50.90;98321.91;5018575;28;20508;-40
2023/01/21 10:19:18;;;;;;;18.10;10.07;;;-0.80;90.00;;;2.80;50.40;98315.34;5005582;28;20049;-40
2023/01/21 10:21:59;;;;;;;17.20;9.70;;;-0.90;90.40;;;2.79;50.73;98312.81;5026713;28;20048;-41
2023/01/21 10:24:44;;;;;;;17.37;10.10;;;-0.90;90.80;;;2.80;50.85;98312.72;5026237;28;20044;-40
2023/01/21 10:27:20;;;;;;;19.70;10.77;;;-0.90;91.70;;;2.85;50.63;98315.91;5027083;28;20048;-41
2023/01/21 10:29:53;;;;;;;19.87;11.47;;;-0.80;91.50;;;2.93;50.71;98310.16;5026017;28;20053;-43
2023/01/21 10:32:25;;;;;;;20.65;11.15;;;-0.80;91.60;;;2.94;51.11;98307.41;5010742;28;20049;-41
2023/01/21 10:34:56;;;;;;;24.53;12.70;;;-0.80;91.30;;;2.98;51.22;98310.69;5026607;28;20057;-40
2023/01/21 10:37:46;;;;;;;20.70;11.23;;;-0.70;91.70;;;2.99;50.88;98311.56;5027598;28;20041;-41
2023/01/21 10:40:43;;;;;;;19.97;10.63;;;-0.70;90.40;;;2.95;50.54;98313.53;5027999;28;20049;-40
2023/01/21 10:43:48;;;;;;;22.77;11.23;;;-0.60;91.10;;;2.84;51.45;98322.09;5026955;28;20041;-41
2023/01/21 10:46:17;;;;;;;;;;;-0.70;90.80;;;2.72;51.40;98310.56;5028910;28;20053;-41